createdAt,value
2017-11-14T00:01:09.593Z,1000.02
2017-11-14T00:02:19.671Z,1000.05
2017-11-14T00:03:30.072Z,1000
2017-11-14T00:04:40.476Z,1000.04
2017-11-14T00:05:50.561Z,1000.11
2017-11-14T00:07:01.034Z,1000.05
2017-11-14T00:08:11.453Z,1000.11
2017-11-14T00:09:21.866Z,1000.09
2017-11-14T00:10:31.936Z,1000.07
2017-11-14T00:11:41.667Z,1000.09
2017-11-14T00:12:51.819Z,1000.09
2017-11-14T00:14:01.900Z,1000.11
2017-11-14T00:15:11.963Z,1000.19
2017-11-14T00:16:21.734Z,1000.16
2017-11-14T00:17:32.133Z,1000.16
2017-11-14T00:18:42.210Z,1000.23
2017-11-14T00:19:51.607Z,1000.29
2017-11-14T00:21:01.672Z,1000.24
2017-11-14T00:22:12.070Z,1000.32
2017-11-14T00:23:22.470Z,1000.26
2017-11-14T00:24:32.933Z,1000.31
2017-11-14T00:25:43.351Z,1000.37
2017-11-14T00:26:53.770Z,1000.5
2017-11-14T00:28:03.893Z,1000.43
2017-11-14T00:29:13.976Z,1000.5
2017-11-14T00:30:23.735Z,1000.45
2017-11-14T00:31:33.483Z,1000.45
2017-11-14T00:32:43.244Z,1000.53
2017-11-14T00:33:53.683Z,1000.47
2017-11-14T00:35:04.109Z,1000.54
2017-11-14T00:36:13.907Z,1000.61
2017-11-14T00:37:24.003Z,1000.65
2017-11-14T00:38:34.070Z,1000.72
2017-11-14T00:39:44.471Z,1000.78
2017-11-14T00:40:53.864Z,1000.75
2017-11-14T00:42:04.306Z,1000.89
2017-11-14T00:43:14.708Z,1000.76
2017-11-14T00:44:24.794Z,1000.87
2017-11-14T00:45:35.202Z,1000.84
2017-11-14T00:46:45.634Z,1000.88
2017-11-14T00:47:56.068Z,1000.91
2017-11-14T00:49:06.152Z,1000.92
2017-11-14T00:50:15.896Z,1000.96
2017-11-14T00:51:26.301Z,1000.9
2017-11-14T00:52:36.751Z,1000.9
2017-11-14T00:53:46.827Z,1000.95
2017-11-14T00:54:57.236Z,1001.04
2017-11-14T00:56:06.985Z,1001.02
2017-11-14T00:57:17.420Z,1001.03
2017-11-14T00:58:27.493Z,1001.02
2017-11-14T00:59:37.960Z,1001.05
2017-11-14T01:00:48.367Z,1001.07
2017-11-14T01:01:58.778Z,1001.1
2017-11-14T01:03:09.171Z,1001.08
2017-11-14T01:04:19.567Z,1001.17
2017-11-14T01:05:29.974Z,1001.15
2017-11-14T01:06:41.634Z,1001.15
2017-11-14T01:07:52.047Z,1001.19
2017-11-14T01:09:02.449Z,1001.19
2017-11-14T01:10:12.859Z,1001.2
2017-11-14T01:11:23.002Z,1001.23
2017-11-14T01:12:33.073Z,1001.26
2017-11-14T01:13:42.867Z,1001.16
2017-11-14T01:14:53.276Z,1001.18
2017-11-14T01:16:02.689Z,1001.3
2017-11-14T01:17:12.817Z,1001.25
2017-11-14T01:18:22.552Z,1001.36
2017-11-14T01:19:32.949Z,1001.27
2017-11-14T01:20:43.009Z,1001.29
2017-11-14T01:21:52.747Z,1001.31
2017-11-14T01:23:02.490Z,1001.27
2017-11-14T01:24:12.903Z,1001.39
2017-11-14T01:25:22.972Z,1001.39
2017-11-14T01:26:33.084Z,1001.3
2017-11-14T01:27:43.162Z,1001.35
2017-11-14T01:28:52.964Z,1001.4
2017-11-14T01:30:03.361Z,1001.39
2017-11-14T01:31:13.434Z,1001.39
2017-11-14T01:32:23.283Z,1001.45
2017-11-14T01:33:33.024Z,1001.34
2017-11-14T01:34:43.447Z,1001.34
2017-11-14T01:35:53.504Z,1001.41
2017-11-14T01:37:03.234Z,1001.36
2017-11-14T01:38:13.637Z,1001.37
2017-11-14T01:39:24.038Z,1001.36
2017-11-14T01:40:34.135Z,1001.29
2017-11-14T01:41:44.225Z,1001.37
2017-11-14T01:42:54.305Z,1001.33
2017-11-14T01:44:04.366Z,1001.42
2017-11-14T01:45:14.432Z,1001.37
2017-11-14T01:46:24.170Z,1001.39
2017-11-14T01:47:34.576Z,1001.39
2017-11-14T01:48:44.999Z,1001.45
2017-11-14T01:49:55.400Z,1001.53
2017-11-14T01:51:05.141Z,1001.5
2017-11-14T01:52:15.593Z,1001.48
2017-11-14T01:53:26.009Z,1001.5
2017-11-14T01:54:36.084Z,1001.51
2017-11-14T01:55:46.155Z,1001.51
2017-11-14T01:56:56.563Z,1001.48
2017-11-14T01:58:06.701Z,1001.52
2017-11-14T01:59:17.125Z,1001.48
2017-11-14T02:00:27.520Z,1001.5
2017-11-14T02:01:37.938Z,1001.51
2017-11-14T02:02:48.021Z,1001.54
2017-11-14T02:03:58.101Z,1001.6
2017-11-14T02:05:08.510Z,1001.57
2017-11-14T02:06:18.924Z,1001.54
2017-11-14T02:07:28.991Z,1001.46
2017-11-14T02:08:39.427Z,1001.48
2017-11-14T02:09:49.535Z,1001.6
2017-11-14T02:10:59.962Z,1001.45
2017-11-14T02:12:10.019Z,1001.53
2017-11-14T02:13:20.419Z,1001.43
2017-11-14T02:14:30.830Z,1001.5
2017-11-14T02:15:41.038Z,1001.54
2017-11-14T02:16:51.140Z,1001.35
2017-11-14T02:18:01.551Z,1001.49
2017-11-14T02:19:11.291Z,1001.51
2017-11-14T02:20:21.697Z,1001.49
2017-11-14T02:21:31.883Z,1001.5
2017-11-14T02:22:41.957Z,1001.56
2017-11-14T02:23:52.418Z,1001.57
2017-11-14T02:25:02.170Z,1001.65
2017-11-14T02:26:12.581Z,1001.6
2017-11-14T02:27:22.720Z,1001.58
2017-11-14T02:28:33.138Z,1001.63
2017-11-14T02:29:42.901Z,1001.67
2017-11-14T02:30:53.319Z,1001.64
2017-11-14T02:32:03.753Z,1001.74
2017-11-14T02:33:13.829Z,1001.74
2017-11-14T02:34:23.922Z,1001.77
2017-11-14T02:35:33.981Z,1001.79
2017-11-14T02:36:44.396Z,1001.79
2017-11-14T02:37:54.804Z,1001.87
2017-11-14T02:39:04.884Z,1001.93
2017-11-14T02:40:15.302Z,1002.01
2017-11-14T02:41:25.716Z,1002
2017-11-14T02:42:35.798Z,1001.97
2017-11-14T02:43:46.243Z,1002.06
2017-11-14T02:44:56.420Z,1001.96
2017-11-14T02:46:06.166Z,1002.04
2017-11-14T02:47:16.574Z,1002.03
2017-11-14T02:48:27.022Z,1002.06
2017-11-14T02:49:37.420Z,1002.08
2017-11-14T02:50:47.880Z,1002.08
2017-11-14T02:51:57.962Z,1002.12
2017-11-14T02:53:08.037Z,1002.1
2017-11-14T02:54:18.120Z,1002.17
2017-11-14T02:55:28.539Z,1002.13
2017-11-14T02:56:38.972Z,1002.14
2017-11-14T02:57:48.724Z,1002.11
2017-11-14T02:58:59.159Z,1002.08
2017-11-14T03:00:09.566Z,1002.01
2017-11-14T03:01:19.666Z,1002.03
2017-11-14T03:32:55.147Z,1002.29
2017-11-14T03:34:05.556Z,1002.29
2017-11-14T03:35:15.605Z,1002.34
2017-11-14T03:36:25.996Z,1002.31
2017-11-14T03:37:36.400Z,1002.37
2017-11-14T03:38:46.830Z,1002.29
2017-11-14T03:39:56.921Z,1002.4
2017-11-14T03:41:07.318Z,1002.4
2017-11-14T03:42:17.418Z,1002.42
2017-11-14T03:43:27.159Z,1002.44
2017-11-14T03:44:37.612Z,1002.38
2017-11-14T03:45:47.686Z,1002.39
2017-11-14T03:46:57.776Z,1002.45
2017-11-14T03:48:08.171Z,1002.38
2017-11-14T03:49:18.249Z,1002.38
2017-11-14T03:50:28.698Z,1002.4
2017-11-14T03:51:38.782Z,1002.45
2017-11-14T03:52:48.870Z,1002.5
2017-11-14T03:53:58.948Z,1002.48
2017-11-14T03:55:09.016Z,1002.53
2017-11-14T03:56:19.085Z,1002.56
2017-11-14T03:57:29.167Z,1002.58
2017-11-14T03:58:39.239Z,1002.65
2017-11-14T03:59:49.657Z,1002.61
2017-11-14T04:01:00.067Z,1002.67
2017-11-14T04:02:10.480Z,1002.67
2017-11-14T04:03:20.872Z,1002.65
2017-11-14T04:04:30.630Z,1002.67
2017-11-14T04:05:40.371Z,1002.68
2017-11-14T04:06:50.780Z,1002.67
2017-11-14T04:08:00.863Z,1002.7
2017-11-14T04:09:10.950Z,1002.71
2017-11-14T04:10:21.354Z,1002.75
2017-11-14T04:11:31.769Z,1002.72
2017-11-14T04:12:42.175Z,1002.72
2017-11-14T04:13:52.596Z,1002.77
2017-11-14T04:15:03.012Z,1002.72
2017-11-14T04:16:13.095Z,1002.77
2017-11-14T04:17:22.846Z,1002.78
2017-11-14T04:18:32.579Z,1002.78
2017-11-14T04:19:42.663Z,1002.83
2017-11-14T04:20:53.079Z,1002.88
2017-11-14T04:22:03.491Z,1002.83
2017-11-14T04:23:13.908Z,1002.84
2017-11-14T04:24:23.986Z,1002.87
2017-11-14T04:25:34.495Z,1002.89
2017-11-14T04:26:44.581Z,1002.94
2017-11-14T04:27:54.312Z,1002.96
2017-11-14T04:29:04.053Z,1003.02
2017-11-14T04:30:14.127Z,1003.02
2017-11-14T04:31:24.219Z,1003.04
2017-11-14T04:32:34.304Z,1003.04
2017-11-14T04:33:44.438Z,1003.02
2017-11-14T04:34:54.528Z,1003.11
2017-11-14T04:36:04.593Z,1003.15
2017-11-14T04:37:15.080Z,1003.09
2017-11-14T04:38:25.499Z,1003.11
2017-11-14T04:39:35.886Z,1003.12
2017-11-14T04:40:46.305Z,1003.18
2017-11-14T04:41:56.718Z,1003.21
2017-11-14T04:43:07.175Z,1003.17
2017-11-14T04:44:17.593Z,1003.18
2017-11-14T04:45:27.669Z,1003.19
2017-11-14T04:46:38.060Z,1003.22
2017-11-14T04:47:48.460Z,1003.22
2017-11-14T04:48:58.867Z,1003.26
2017-11-14T04:50:08.933Z,1003.27
2017-11-14T04:51:19.340Z,1003.27
2017-11-14T04:52:29.737Z,1003.29
2017-11-14T04:53:40.158Z,1003.29
2017-11-14T04:54:50.448Z,1003.29
2017-11-14T04:56:00.511Z,1003.28
2017-11-14T04:57:10.588Z,1003.28
2017-11-14T04:58:20.668Z,1003.32
2017-11-14T04:59:31.066Z,1003.34
2017-11-14T05:00:41.477Z,1003.3
2017-11-14T05:01:51.555Z,1003.39
2017-11-14T05:03:01.962Z,1003.35
2017-11-14T05:04:11.722Z,1003.35
2017-11-14T05:05:22.134Z,1003.38
2017-11-14T05:06:32.219Z,1003.39
2017-11-14T05:07:42.293Z,1003.42
2017-11-14T05:08:52.711Z,1003.46
2017-11-14T05:10:02.480Z,1003.49
2017-11-14T05:11:12.209Z,1003.48
2017-11-14T05:12:22.674Z,1003.54
2017-11-14T05:13:33.085Z,1003.59
2017-11-14T05:14:43.486Z,1003.61
2017-11-14T05:15:53.895Z,1003.7
2017-11-14T05:17:03.976Z,1003.69
2017-11-14T05:18:14.120Z,1003.71
2017-11-14T05:19:23.857Z,1003.72
2017-11-14T05:20:33.977Z,1003.79
2017-11-14T05:21:44.393Z,1003.83
2017-11-14T05:22:54.799Z,1003.81
2017-11-14T05:24:05.212Z,1003.84
2017-11-14T05:25:14.959Z,1003.9
2017-11-14T05:26:24.709Z,1003.94
2017-11-14T05:27:34.818Z,1003.96
2017-11-14T05:28:45.249Z,1003.93
2017-11-14T05:29:55.037Z,1004.01
2017-11-14T05:31:05.123Z,1004.08
2017-11-14T05:32:15.184Z,1004.08
2017-11-14T05:33:25.586Z,1004.06
2017-11-14T05:34:35.348Z,1004.07
2017-11-14T05:35:45.804Z,1004.08
2017-11-14T05:36:56.214Z,1004.02
2017-11-14T05:38:06.693Z,1004.03
2017-11-14T05:39:16.763Z,1004.08
2017-11-14T05:40:26.521Z,1004.07
2017-11-14T05:41:36.672Z,1004.08
2017-11-14T05:42:47.091Z,1004.06
2017-11-14T05:43:57.164Z,1004.16
2017-11-14T05:45:07.571Z,1004.18
2017-11-14T05:46:17.657Z,1004.19
2017-11-14T05:47:28.059Z,1004.22
2017-11-14T05:48:38.473Z,1004.23
2017-11-14T05:49:48.545Z,1004.26
2017-11-14T05:50:58.965Z,1004.24
2017-11-14T05:52:09.027Z,1004.28
2017-11-14T05:53:19.480Z,1004.34
2017-11-14T05:54:29.888Z,1004.33
2017-11-14T05:55:40.315Z,1004.32
2017-11-14T05:56:50.740Z,1004.31
2017-11-14T05:58:01.156Z,1004.36
2017-11-14T05:59:11.269Z,1004.39
2017-11-14T06:00:21.663Z,1004.38
2017-11-14T06:01:32.084Z,1004.39
2017-11-14T06:02:42.186Z,1004.39
2017-11-14T06:03:52.619Z,1004.41
2017-11-14T06:05:02.743Z,1004.41
2017-11-14T06:06:12.482Z,1004.42
2017-11-14T06:07:22.884Z,1004.49
2017-11-14T06:08:32.967Z,1004.49
2017-11-14T06:09:43.376Z,1004.49
2017-11-14T06:10:53.778Z,1004.49
2017-11-14T06:12:04.206Z,1004.52
2017-11-14T06:13:13.932Z,1004.53
2017-11-14T06:14:24.019Z,1004.57
2017-11-14T06:15:34.097Z,1004.58
2017-11-14T06:16:44.575Z,1004.58
2017-11-14T06:17:54.955Z,1004.61
2017-11-14T06:19:05.355Z,1004.69
2017-11-14T06:20:14.758Z,1004.66
2017-11-14T06:21:25.163Z,1004.68
2017-11-14T06:22:34.608Z,1004.72
2017-11-14T06:23:44.698Z,1004.75
2017-11-14T06:24:54.816Z,1004.74
2017-11-14T06:26:05.238Z,1004.81
2017-11-14T06:27:15.644Z,1004.78
2017-11-14T06:28:25.456Z,1004.81
2017-11-14T06:29:35.535Z,1004.79
2017-11-14T06:30:45.980Z,1004.81
2017-11-14T06:31:56.417Z,1004.81
2017-11-14T06:33:06.818Z,1004.78
2017-11-14T06:34:17.231Z,1004.78
2017-11-14T06:35:27.651Z,1004.81
2017-11-14T06:36:38.087Z,1004.84
2017-11-14T06:37:47.828Z,1004.82
2017-11-14T06:38:58.235Z,1004.86
2017-11-14T06:40:08.314Z,1004.91
2017-11-14T06:41:18.741Z,1004.95
2017-11-14T06:42:28.517Z,1004.98
2017-11-14T06:43:38.932Z,1004.96
2017-11-14T06:44:48.669Z,1004.97
2017-11-14T06:45:59.097Z,1004.95
2017-11-14T06:47:08.843Z,1005
2017-11-14T06:48:18.922Z,1005.02
2017-11-14T06:49:28.997Z,1005.03
2017-11-14T06:50:39.414Z,1005.02
2017-11-14T06:51:49.870Z,1005.03
2017-11-14T06:53:00.268Z,1005.02
2017-11-14T06:54:10.690Z,1005.05
2017-11-14T06:55:21.090Z,1005.09
2017-11-14T06:56:31.492Z,1005.09
2017-11-14T06:57:41.584Z,1005.09
2017-11-14T06:58:51.653Z,1005.14
2017-11-14T07:00:01.753Z,1005.18
2017-11-14T07:01:11.815Z,1005.25
2017-11-14T07:02:21.949Z,1005.27
2017-11-14T07:03:32.104Z,1005.28
2017-11-14T07:04:42.502Z,1005.28
2017-11-14T07:05:52.919Z,1005.31
2017-11-14T07:07:03.346Z,1005.32
2017-11-14T07:08:13.781Z,1005.31
2017-11-14T07:09:23.908Z,1005.29
2017-11-14T07:10:34.315Z,1005.29
2017-11-14T07:11:44.729Z,1005.34
2017-11-14T07:12:55.133Z,1005.35
2017-11-14T07:14:05.563Z,1005.35
2017-11-14T07:15:15.656Z,1005.42
2017-11-14T07:16:25.819Z,1005.43
2017-11-14T07:17:36.229Z,1005.46
2017-11-14T07:18:46.657Z,1005.45
2017-11-14T07:19:56.069Z,1005.48
2017-11-14T07:21:06.236Z,1005.46
2017-11-14T07:22:15.973Z,1005.48
2017-11-14T07:23:26.376Z,1005.47
2017-11-14T07:24:36.799Z,1005.46
2017-11-14T07:25:47.189Z,1005.49
2017-11-14T07:26:56.983Z,1005.46
2017-11-14T07:28:07.061Z,1005.52
2017-11-14T07:29:16.806Z,1005.53
2017-11-14T07:30:26.902Z,1005.57
2017-11-14T07:31:36.980Z,1005.56
2017-11-14T07:32:47.048Z,1005.58
2017-11-14T07:33:56.777Z,1005.6
2017-11-14T07:35:07.180Z,1005.64
2017-11-14T07:36:16.940Z,1005.6
2017-11-14T07:37:28.191Z,1005.59
2017-11-14T07:38:38.650Z,1005.57
2017-11-14T07:39:49.066Z,1005.6
2017-11-14T07:40:59.508Z,1005.62
2017-11-14T07:42:09.926Z,1005.64
2017-11-14T07:43:20.321Z,1005.65
2017-11-14T07:44:30.390Z,1005.7
2017-11-14T07:45:40.806Z,1005.72
2017-11-14T07:46:51.558Z,1005.8
2017-11-14T07:48:01.987Z,1005.81
2017-11-14T07:49:11.741Z,1005.8
2017-11-14T07:50:22.160Z,1005.83
2017-11-14T07:51:32.241Z,1005.87
2017-11-14T07:52:42.652Z,1005.8
2017-11-14T07:53:53.060Z,1005.84
2017-11-14T07:55:03.480Z,1005.81
2017-11-14T07:56:13.932Z,1005.83
2017-11-14T07:57:23.686Z,1005.8
2017-11-14T07:58:33.426Z,1005.84
2017-11-14T07:59:43.849Z,1005.82
2017-11-14T08:00:53.914Z,1005.87
2017-11-14T08:02:04.330Z,1005.86
2017-11-14T08:03:14.406Z,1005.87
2017-11-14T08:04:24.168Z,1005.88
2017-11-14T08:05:34.594Z,1005.87
2017-11-14T08:06:45.012Z,1005.91
2017-11-14T08:07:55.089Z,1005.91
2017-11-14T08:09:05.182Z,1005.99
2017-11-14T08:10:15.589Z,1005.94
2017-11-14T08:11:26.014Z,1005.95
2017-11-14T08:12:36.424Z,1005.97
2017-11-14T08:13:46.874Z,1006
2017-11-14T08:14:56.954Z,1006
2017-11-14T08:16:07.362Z,1005.98
2017-11-14T08:17:17.781Z,1006.02
2017-11-14T08:18:27.871Z,1005.98
2017-11-14T08:19:37.947Z,1006.07
2017-11-14T08:20:48.047Z,1006.07
2017-11-14T08:21:58.470Z,1006.01
2017-11-14T08:23:08.208Z,1006.08
2017-11-14T08:24:18.284Z,1006.06
2017-11-14T08:25:28.364Z,1006.04
2017-11-14T08:26:38.789Z,1006.08
2017-11-14T08:27:48.859Z,1006.09
2017-11-14T08:28:58.941Z,1006.1
2017-11-14T08:30:08.686Z,1006.1
2017-11-14T08:31:18.805Z,1006.11
2017-11-14T08:32:29.237Z,1006.04
2017-11-14T08:33:39.637Z,1006.08
2017-11-14T08:34:50.057Z,1006.14
2017-11-14T08:36:00.131Z,1006.14
2017-11-14T08:37:09.875Z,1006.15
2017-11-14T08:38:19.961Z,1006.16
2017-11-14T08:39:29.723Z,1006.14
2017-11-14T08:40:40.140Z,1006.11
2017-11-14T08:41:50.223Z,1006.12
2017-11-14T08:43:00.327Z,1006.1
2017-11-14T08:44:10.750Z,1006.18
2017-11-14T08:45:20.836Z,1006.16
2017-11-14T08:46:31.254Z,1006.21
2017-11-14T08:47:41.330Z,1006.21
2017-11-14T08:48:51.787Z,1006.26
2017-11-14T08:50:01.865Z,1006.24
2017-11-14T08:51:12.303Z,1006.25
2017-11-14T08:52:22.696Z,1006.27
2017-11-14T08:53:33.112Z,1006.24
2017-11-14T08:54:43.522Z,1006.34
2017-11-14T08:55:53.934Z,1006.11
2017-11-14T08:57:04.049Z,1006.14
2017-11-14T08:58:14.138Z,1006.24
2017-11-14T08:59:23.878Z,1006.18
2017-11-14T09:00:34.312Z,1006.32
2017-11-14T09:01:44.723Z,1006.3
2017-11-14T09:02:55.137Z,1006.39
2017-11-14T09:04:04.533Z,1006.43
2017-11-14T09:05:14.598Z,1006.44
2017-11-14T09:06:25.095Z,1006.37
2017-11-14T09:07:35.514Z,1006.45
2017-11-14T09:08:45.942Z,1006.41
2017-11-14T09:09:56.052Z,1006.35
2017-11-14T09:11:06.140Z,1006.43
2017-11-14T09:12:15.942Z,1006.41
2017-11-14T09:13:25.698Z,1006.37
2017-11-14T09:14:35.445Z,1006.37
2017-11-14T09:15:45.853Z,1006.5
2017-11-14T09:16:56.274Z,1006.44
2017-11-14T09:18:06.726Z,1006.47
2017-11-14T09:19:16.796Z,1006.59
2017-11-14T09:20:26.916Z,1006.53
2017-11-14T09:21:36.991Z,1006.48
2017-11-14T09:22:47.083Z,1006.46
2017-11-14T09:23:57.216Z,1006.54
2017-11-14T09:25:07.387Z,1006.4
2017-11-14T09:26:17.800Z,1006.4
2017-11-14T09:27:27.868Z,1006.47
2017-11-14T09:28:37.962Z,1006.35
2017-11-14T09:29:48.379Z,1006.52
2017-11-14T09:30:58.829Z,1006.52
2017-11-14T09:32:09.256Z,1006.52
2017-11-14T09:33:19.345Z,1006.52
2017-11-14T09:34:29.425Z,1006.56
2017-11-14T09:35:39.893Z,1006.51
2017-11-14T09:36:51.315Z,1006.57
2017-11-14T09:38:01.725Z,1006.57
2017-11-14T09:39:12.149Z,1006.58
2017-11-14T09:40:22.578Z,1006.54
2017-11-14T09:41:32.998Z,1006.56
2017-11-14T09:42:43.465Z,1006.49
2017-11-14T09:43:53.579Z,1006.55
2017-11-14T09:45:03.743Z,1006.48
2017-11-14T09:46:14.173Z,1006.45
2017-11-14T09:47:24.314Z,1006.5
2017-11-14T09:48:34.756Z,1006.6
2017-11-14T09:49:45.187Z,1006.51
2017-11-14T09:50:55.609Z,1006.64
2017-11-14T09:52:06.062Z,1006.53
2017-11-14T09:53:16.526Z,1006.59
2017-11-14T09:54:26.965Z,1006.53
2017-11-14T09:55:37.373Z,1006.55
2017-11-14T09:56:46.801Z,1006.54
2017-11-14T09:57:57.249Z,1006.53
2017-11-14T09:59:07.352Z,1006.6
2017-11-14T10:00:17.446Z,1006.54
2017-11-14T10:01:27.525Z,1006.48
2017-11-14T10:02:37.941Z,1006.53
2017-11-14T10:03:48.368Z,1006.57
2017-11-14T10:04:58.151Z,1006.42
2017-11-14T10:06:08.568Z,1006.5
2017-11-14T10:07:18.324Z,1006.45
2017-11-14T10:08:28.733Z,1006.51
2017-11-14T10:09:39.164Z,1006.35
2017-11-14T10:10:49.636Z,1006.39
2017-11-14T10:12:00.082Z,1006.31
2017-11-14T10:13:10.158Z,1006.28
2017-11-14T10:14:20.590Z,1006.33
2017-11-14T10:15:30.685Z,1006.21
2017-11-14T10:16:41.140Z,1006.25
2017-11-14T10:17:51.261Z,1006.21
2017-11-14T10:19:01.716Z,1006.26
2017-11-14T10:20:12.134Z,1006.3
2017-11-14T10:21:22.557Z,1006.18
2017-11-14T10:22:33.070Z,1006.18
2017-11-14T10:23:44.159Z,1006.29
2017-11-14T10:24:54.238Z,1006.23
2017-11-14T10:26:04.343Z,1006.23
2017-11-14T10:27:14.424Z,1006.2
2017-11-14T10:28:24.173Z,1006.28
2017-11-14T10:29:34.630Z,1006.3
2017-11-14T10:30:44.731Z,1006.36
2017-11-14T10:31:54.821Z,1006.23
2017-11-14T10:33:05.275Z,1006.32
2017-11-14T10:34:15.794Z,1006.39
2017-11-14T10:35:25.552Z,1006.27
2017-11-14T10:36:35.980Z,1006.22
2017-11-14T10:37:46.407Z,1006.16
2017-11-14T10:38:56.513Z,1006.16
2017-11-14T10:40:06.982Z,1006.3
2017-11-14T10:41:16.748Z,1006.1
2017-11-14T10:42:27.223Z,1006.15
2017-11-14T10:43:37.359Z,1006.23
2017-11-14T10:44:47.911Z,1006.1
2017-11-14T10:45:58.391Z,1006.17
2017-11-14T10:47:08.809Z,1006.22
2017-11-14T10:48:18.957Z,1006.2
2017-11-14T10:49:29.087Z,1006.17
2017-11-14T10:50:39.517Z,1006.2
2017-11-14T10:51:50.052Z,1006.27
2017-11-14T10:53:00.473Z,1006.21
2017-11-14T10:54:10.887Z,1006.19
2017-11-14T10:55:20.626Z,1006.2
2017-11-14T10:56:31.054Z,1006.09
2017-11-14T10:57:41.202Z,1006.15
2017-11-14T10:58:51.641Z,1006.19
2017-11-14T11:00:01.781Z,1006.23
2017-11-14T11:01:11.926Z,1006.21
2017-11-14T11:02:22.397Z,1006.2
2017-11-14T11:03:32.571Z,1006.21
2017-11-14T11:04:42.307Z,1006.21
2017-11-14T11:05:52.401Z,1006.16
2017-11-14T11:07:02.837Z,1006.09
2017-11-14T11:08:13.289Z,1006.19
2017-11-14T11:09:23.435Z,1006.18
2017-11-14T11:10:33.846Z,1006.26
2017-11-14T11:11:44.295Z,1006.18
2017-11-14T11:12:54.713Z,1006.22
2017-11-14T11:14:05.152Z,1006.23
2017-11-14T11:15:14.974Z,1006.16
2017-11-14T11:16:25.399Z,1006.14
2017-11-14T11:17:35.857Z,1006.26
2017-11-14T11:18:46.269Z,1006.15
2017-11-14T11:19:56.380Z,1006.2
2017-11-14T11:21:06.880Z,1006.22
2017-11-14T11:22:16.997Z,1006.15
2017-11-14T11:23:27.404Z,1006.28
2017-11-14T11:24:37.847Z,1006.18
2017-11-14T11:25:47.948Z,1006.06
2017-11-14T11:26:57.699Z,1006.17
2017-11-14T11:28:08.134Z,1006.09
2017-11-14T11:29:18.784Z,1006.12
2017-11-14T11:30:28.894Z,1006.08
2017-11-14T11:31:39.349Z,1006.08
2017-11-14T11:32:49.843Z,1006.08
2017-11-14T11:33:59.944Z,1006.03
2017-11-14T11:35:10.028Z,1006.08
2017-11-14T11:36:20.111Z,1006.11
2017-11-14T11:37:30.560Z,1006.26
2017-11-14T11:38:40.404Z,1006.11
2017-11-14T11:39:50.721Z,1006.09
2017-11-14T11:41:01.150Z,1005.95
2017-11-14T11:42:11.253Z,1006.05
2017-11-14T11:43:21.698Z,1005.95
2017-11-14T11:44:32.121Z,1005.97
2017-11-14T11:45:42.565Z,1005.95
2017-11-14T11:46:52.668Z,1005.92
2017-11-14T11:48:02.763Z,1005.91
2017-11-14T11:49:13.209Z,1006
2017-11-14T11:50:23.643Z,1006.01
2017-11-14T11:51:33.735Z,1005.93
2017-11-14T11:52:43.843Z,1005.96
2017-11-14T11:53:54.512Z,1005.91
2017-11-14T11:55:04.998Z,1006
2017-11-14T11:56:15.498Z,1005.94
2017-11-14T11:57:25.926Z,1005.96
2017-11-14T11:58:36.040Z,1005.95
2017-11-14T11:59:46.149Z,1005.94
2017-11-14T12:00:56.245Z,1005.99
2017-11-14T12:02:06.395Z,1005.94
2017-11-14T12:03:16.492Z,1005.92
2017-11-14T12:04:26.922Z,1005.91
2017-11-14T12:05:37.004Z,1005.95
2017-11-14T12:06:47.101Z,1006.02
2017-11-14T12:07:57.187Z,1005.83
2017-11-14T12:09:07.621Z,1006.01
2017-11-14T12:10:18.097Z,1005.94
2017-11-14T12:11:28.556Z,1005.95
2017-11-14T12:12:38.989Z,1005.95
2017-11-14T12:13:49.467Z,1005.9
2017-11-14T12:14:59.564Z,1005.98
2017-11-14T12:16:09.668Z,1005.95
2017-11-14T12:17:19.820Z,1005.92
2017-11-14T12:18:30.257Z,1006.02
2017-11-14T12:19:40.749Z,1006.02
2017-11-14T12:20:51.192Z,1005.95
2017-11-14T12:22:01.616Z,1005.95
2017-11-14T12:23:12.047Z,1005.97
2017-11-14T12:24:22.155Z,1005.9
2017-11-14T12:25:32.572Z,1005.84
2017-11-14T12:26:43.020Z,1005.94
2017-11-14T12:27:53.114Z,1005.89
2017-11-14T12:29:03.583Z,1005.91
2017-11-14T12:30:14.026Z,1005.82
2017-11-14T12:31:24.164Z,1005.77
2017-11-14T12:32:34.259Z,1005.76
2017-11-14T12:33:44.376Z,1005.87
2017-11-14T12:34:54.463Z,1005.82
2017-11-14T12:36:04.224Z,1005.85
2017-11-14T12:37:14.694Z,1005.86
2017-11-14T12:38:25.122Z,1005.82
2017-11-14T12:39:34.884Z,1005.7
2017-11-14T12:40:44.642Z,1005.79
2017-11-14T12:41:55.080Z,1005.78
2017-11-14T12:43:05.517Z,1005.74
2017-11-14T12:44:15.920Z,1005.76
2017-11-14T12:45:26.337Z,1005.75
2017-11-14T12:46:36.434Z,1005.77
2017-11-14T12:47:46.527Z,1005.73
2017-11-14T12:48:56.961Z,1005.71
2017-11-14T12:50:06.733Z,1005.59
2017-11-14T12:51:17.172Z,1005.69
2017-11-14T12:52:26.924Z,1005.69
2017-11-14T12:53:37.072Z,1005.7
2017-11-14T12:54:47.187Z,1005.64
2017-11-14T12:55:57.615Z,1005.7
2017-11-14T12:57:07.706Z,1005.72
2017-11-14T12:58:17.796Z,1005.65
2017-11-14T12:59:27.694Z,1005.7
2017-11-14T13:00:37.519Z,1005.74
2017-11-14T13:01:47.629Z,1005.8
2017-11-14T13:02:57.781Z,1005.72
2017-11-14T13:04:07.900Z,1005.74
2017-11-14T13:05:17.732Z,1005.78
2017-11-14T13:06:27.837Z,1005.78
2017-11-14T13:07:39.101Z,1005.79
2017-11-14T13:08:48.933Z,1005.79
2017-11-14T13:09:58.483Z,1005.79
2017-11-14T13:11:08.354Z,1005.77
2017-11-14T13:12:18.449Z,1005.82
2017-11-14T13:13:27.998Z,1005.75
2017-11-14T13:14:38.105Z,1005.79
2017-11-14T13:15:48.009Z,1005.81
2017-11-14T13:16:58.136Z,1005.88
2017-11-14T13:18:07.978Z,1005.79
2017-11-14T13:19:17.793Z,1005.77
2017-11-14T13:20:27.620Z,1005.8
2017-11-14T13:21:37.710Z,1005.78
2017-11-14T13:22:47.546Z,1005.83
2017-11-14T13:23:57.652Z,1005.82
2017-11-14T13:25:07.492Z,1005.84
2017-11-14T13:26:17.036Z,1005.84
2017-11-14T13:27:27.113Z,1005.91
2017-11-14T13:28:36.930Z,1005.85
2017-11-14T13:29:46.730Z,1005.86
2017-11-14T13:30:56.567Z,1005.89
2017-11-14T13:32:06.676Z,1005.82
2017-11-14T13:33:16.486Z,1005.89
2017-11-14T13:34:26.618Z,1005.86
2017-11-14T13:35:36.432Z,1005.83
2017-11-14T13:36:46.555Z,1005.79
2017-11-14T13:37:56.117Z,1005.84
2017-11-14T13:39:05.973Z,1005.77
2017-11-14T13:40:15.576Z,1005.8
2017-11-14T13:41:25.682Z,1005.84
2017-11-14T13:42:35.779Z,1005.81
2017-11-14T13:43:45.893Z,1005.9
2017-11-14T13:44:55.748Z,1005.93
2017-11-14T13:46:05.932Z,1005.89
2017-11-14T13:47:16.006Z,1005.97
2017-11-14T13:48:26.088Z,1005.93
2017-11-14T13:49:35.923Z,1005.94
2017-11-14T13:50:46.051Z,1005.95
2017-11-14T13:51:56.168Z,1005.95
2017-11-14T13:53:05.744Z,1005.94
2017-11-14T13:54:15.331Z,1005.97
2017-11-14T13:55:25.136Z,1005.96
2017-11-14T13:56:35.243Z,1005.97
2017-11-14T13:57:45.166Z,1005.99
2017-11-14T13:58:55.273Z,1005.98
2017-11-14T14:00:06.096Z,1005.97
2017-11-14T14:01:15.937Z,1005.99
2017-11-14T14:02:25.763Z,1006.08
2017-11-14T14:03:35.928Z,1006.03
2017-11-14T14:04:46.037Z,1005.93
2017-11-14T14:05:56.177Z,1005.99
2017-11-14T14:07:06.029Z,1005.97
2017-11-14T14:08:16.192Z,1005.97
2017-11-14T14:09:26.353Z,1005.97
2017-11-14T14:10:36.208Z,1005.99
2017-11-14T14:11:46.041Z,1006
2017-11-14T14:12:56.122Z,1006
2017-11-14T14:14:06.267Z,1006.02
2017-11-14T14:15:16.167Z,1006.06
2017-11-14T14:16:25.716Z,1006.05
2017-11-14T14:17:35.828Z,1006.01
2017-11-14T14:18:45.669Z,1006.06
2017-11-14T14:19:55.756Z,1006.05
2017-11-14T14:21:05.591Z,1006.07
2017-11-14T14:22:15.449Z,1006.08
2017-11-14T14:23:25.968Z,1006.1
2017-11-14T14:24:35.801Z,1006.12
2017-11-14T14:25:45.101Z,1006.17
2017-11-14T14:26:54.983Z,1006.15
2017-11-14T14:28:05.111Z,1006.14
2017-11-14T14:29:14.930Z,1006.15
2017-11-14T14:30:24.499Z,1006.18
2017-11-14T14:31:34.380Z,1006.16
2017-11-14T14:32:44.505Z,1006.17
2017-11-14T14:33:54.604Z,1006.19
2017-11-14T14:35:04.445Z,1006.17
2017-11-14T14:36:14.535Z,1006.2
2017-11-14T14:37:24.350Z,1006.22
2017-11-14T14:38:34.497Z,1006.15
2017-11-14T14:39:44.301Z,1006.23
2017-11-14T14:40:54.115Z,1006.15
2017-11-14T14:42:04.262Z,1006.25
2017-11-14T14:43:14.097Z,1006.23